Time;durP1;ratioP1;P1;durP2;ratioP2;P2;SDS_P1;SDS_P2;PMS_P1;PMS_P2;Temp;Humidity;BMP_temperature;BMP_pressure;BME280_temperature;BME280_humidity;BME280_pressure;Samples;Min_cycle;Max_cycle;Signal;HPM_P1;HPM_P2
2024/04/08 00:01:12;;;;;;;10.13;3.57;;;17.60;99.90;;;;;;5116115;28;20489;-66
2024/04/08 00:03:38;;;;;;;4.30;3.30;;;17.60;99.90;;;;;;5115875;28;20486;-67
2024/04/08 00:06:04;;;;;;;5.30;3.50;;;17.50;99.90;;;;;;5115909;28;20643;-66
2024/04/08 00:08:31;;;;;;;7.03;3.97;;;17.10;99.90;;;;;;5115881;28;20591;-67
2024/04/08 00:10:58;;;;;;;4.80;3.67;;;17.00;99.90;;;;;;5115695;28;20509;-66
2024/04/08 00:13:23;;;;;;;6.90;3.60;;;17.00;99.90;;;;;;5115651;28;20952;-66
2024/04/08 00:15:58;;;;;;;3.87;3.47;;;17.10;99.90;;;;;;5115620;28;20492;-67
2024/04/08 00:18:23;;;;;;;4.00;3.60;;;17.10;99.90;;;;;;5115791;28;20278;-67
2024/04/08 00:21:00;;;;;;;4.30;3.47;;;17.10;99.90;;;;;;5115631;28;20541;-67
2024/04/08 00:23:26;;;;;;;4.20;3.80;;;17.20;99.90;;;;;;5115392;28;20232;-66
2024/04/08 00:25:53;;;;;;;4.10;3.80;;;17.20;99.90;;;;;;5115721;28;20557;-66
2024/04/08 00:28:19;;;;;;;5.37;3.50;;;17.20;99.90;;;;;;5115341;28;20646;-66
2024/04/08 00:30:45;;;;;;;4.53;3.20;;;17.20;99.90;;;;;;5114488;28;20505;-66
2024/04/08 00:33:11;;;;;;;7.10;4.00;;;17.30;99.90;;;;;;5115454;28;20194;-67
2024/04/08 00:35:37;;;;;;;5.40;3.60;;;17.30;99.90;;;;;;5115282;28;20874;-66
2024/04/08 00:38:03;;;;;;;7.40;3.80;;;17.20;99.90;;;;;;5115175;28;20275;-67
2024/04/08 00:40:36;;;;;;;7.33;3.60;;;17.30;99.90;;;;;;5115370;28;20537;-66
2024/04/08 00:43:03;;;;;;;7.23;3.57;;;17.40;99.90;;;;;;5115217;28;20540;-66
2024/04/08 00:45:30;;;;;;;6.63;3.70;;;17.40;99.90;;;;;;5114897;28;20964;-66
2024/04/08 00:47:56;;;;;;;5.23;3.43;;;17.30;99.90;;;;;;5115140;28;20531;-66
2024/04/08 00:50:23;;;;;;;5.77;3.20;;;17.20;99.90;;;;;;5114988;28;20548;-66
2024/04/08 00:52:50;;;;;;;4.00;3.63;;;17.10;99.90;;;;;;5115339;28;20312;-67
2024/04/08 00:55:16;;;;;;;3.57;3.27;;;17.20;99.90;;;;;;5115127;28;20463;-66
2024/04/08 00:57:43;;;;;;;6.70;3.10;;;17.20;99.90;;;;;;5114752;28;21029;-66
2024/04/08 01:00:13;;;;;;;4.20;3.03;;;17.20;99.90;;;;;;5114913;28;20959;-67
2024/04/08 01:02:39;;;;;;;3.43;3.13;;;17.20;99.90;;;;;;5114791;28;20477;-66
2024/04/08 01:05:05;;;;;;;7.67;3.87;;;17.20;99.90;;;;;;5114622;28;20517;-66
2024/04/08 01:07:45;;;;;;;7.30;3.37;;;17.20;99.90;;;;;;5114931;28;20213;-68
2024/04/08 01:10:12;;;;;;;3.73;3.30;;;17.20;99.90;;;;;;5114554;28;20944;-66
2024/04/08 01:12:40;;;;;;;3.93;3.53;;;16.90;99.90;;;;;;5114694;28;20445;-66
2024/04/08 01:15:08;;;;;;;5.23;3.40;;;16.60;99.90;;;;;;5114656;28;20548;-66
2024/04/08 01:17:35;;;;;;;7.93;3.50;;;16.60;99.90;;;;;;5114441;28;20445;-66
2024/04/08 01:20:01;;;;;;;3.73;3.43;;;16.50;99.90;;;;;;5114618;28;20456;-66
2024/04/08 01:22:30;;;;;;;4.33;3.30;;;16.60;99.90;;;;;;5114597;28;20525;-66
2024/04/08 01:24:58;;;;;;;3.50;3.10;;;16.60;99.90;;;;;;5114423;28;20986;-66
2024/04/08 01:27:23;;;;;;;7.10;3.97;;;16.30;99.90;;;;;;5114363;28;20446;-66
2024/04/08 01:29:50;;;;;;;5.30;3.40;;;15.90;99.90;;;;;;5114245;28;20543;-66
2024/04/08 01:32:15;;;;;;;3.73;3.40;;;15.70;99.90;;;;;;5114135;28;20190;-66
2024/04/08 01:34:42;;;;;;;4.03;3.60;;;15.60;99.90;;;;;;5114104;28;20520;-66
2024/04/08 01:37:07;;;;;;;3.57;3.13;;;15.70;99.90;;;;;;5114279;28;20281;-66
2024/04/08 01:39:34;;;;;;;4.60;2.93;;;16.00;99.90;;;;;;5114126;28;20535;-66
2024/04/08 01:42:00;;;;;;;3.20;2.90;;;16.20;99.90;;;;;;5113920;28;20622;-66
2024/04/08 01:44:27;;;;;;;2.97;2.70;;;16.50;99.90;;;;;;5113861;28;20984;-66
2024/04/08 01:46:53;;;;;;;3.90;2.53;;;16.60;99.90;;;;;;5113725;28;20988;-66
2024/04/08 01:49:19;;;;;;;5.63;3.00;;;16.60;99.90;;;;;;5113974;28;20547;-66
2024/04/08 01:51:45;;;;;;;5.27;3.03;;;16.70;99.90;;;;;;5114021;28;20470;-66
2024/04/08 01:54:12;;;;;;;5.50;2.80;;;16.80;99.90;;;;;;5113931;28;20537;-66
2024/04/08 01:56:38;;;;;;;5.10;2.60;;;17.00;99.90;;;;;;5113802;28;20547;-66
2024/04/08 01:59:06;;;;;;;7.37;3.00;;;17.10;99.90;;;;;;5113764;28;20514;-66
2024/04/08 02:01:31;;;;;;;3.93;2.70;;;17.20;99.90;;;;;;5113623;28;20274;-66
2024/04/08 02:03:58;;;;;;;5.50;2.90;;;17.30;99.90;;;;;;5113702;28;20573;-66
2024/04/08 02:06:23;;;;;;;4.97;2.60;;;17.40;99.90;;;;;;5113792;28;20191;-66
2024/04/08 02:08:50;;;;;;;3.80;2.90;;;17.50;99.90;;;;;;5113722;28;20477;-66
2024/04/08 02:11:15;;;;;;;4.67;2.90;;;17.50;99.90;;;;;;5113646;28;20188;-66
2024/04/08 02:13:44;;;;;;;3.27;2.50;;;17.60;99.90;;;;;;5113607;28;20547;-66
2024/04/08 02:16:11;;;;;;;4.37;3.00;;;17.60;99.90;;;;;;5113710;28;20667;-66
2024/04/08 02:18:37;;;;;;;6.50;3.67;;;17.50;99.90;;;;;;5113627;28;20445;-66
2024/04/08 02:21:03;;;;;;;2.77;2.57;;;17.50;99.90;;;;;;5113520;28;20444;-66
2024/04/08 02:23:29;;;;;;;3.07;2.87;;;17.60;99.90;;;;;;5113465;28;20869;-66
2024/04/08 02:25:55;;;;;;;3.20;2.90;;;17.60;99.90;;;;;;5113484;28;20194;-66
2024/04/08 02:28:21;;;;;;;4.23;3.20;;;17.70;99.90;;;;;;5113312;28;20529;-66
2024/04/08 02:30:47;;;;;;;3.57;2.77;;;17.70;99.90;;;;;;5113566;28;20278;-66
2024/04/08 02:33:15;;;;;;;4.00;3.10;;;17.80;99.90;;;;;;5113463;28;20556;-66
2024/04/08 02:35:40;;;;;;;3.30;3.00;;;17.70;99.90;;;;;;5113469;28;20234;-66
2024/04/08 02:38:08;;;;;;;3.93;3.17;;;17.60;99.90;;;;;;5113376;28;20481;-66
2024/04/08 02:40:34;;;;;;;5.63;3.13;;;17.50;99.90;;;;;;5113708;28;20285;-66
2024/04/08 02:43:03;;;;;;;7.70;2.53;;;17.50;99.90;;;;;;5113137;28;20449;-66
2024/04/08 02:45:29;;;;;;;5.37;3.30;;;17.60;99.90;;;;;;5113132;28;20481;-66
2024/04/08 02:47:58;;;;;;;4.17;3.10;;;17.60;99.90;;;;;;5113467;28;20544;-66
2024/04/08 02:50:25;;;;;;;3.00;2.70;;;17.60;99.90;;;;;;5113279;28;20187;-66
2024/04/08 02:52:51;;;;;;;3.97;3.43;;;17.60;99.90;;;;;;5113270;28;20459;-66
2024/04/08 02:55:17;;;;;;;5.80;3.13;;;17.60;99.90;;;;;;5116462;28;20445;-66
2024/04/08 02:57:43;;;;;;;12.23;3.60;;;17.60;99.90;;;;;;5117130;28;20545;-66
2024/04/08 03:00:11;;;;;;;8.23;3.10;;;17.70;99.90;;;;;;5117350;28;20282;-66
2024/04/08 03:02:38;;;;;;;3.47;3.20;;;17.70;99.90;;;;;;5117223;28;20457;-66
2024/04/08 03:05:03;;;;;;;6.90;3.37;;;17.70;99.90;;;;;;5117028;28;20481;-66
2024/04/08 03:07:31;;;;;;;4.67;3.10;;;17.70;99.90;;;;;;5117037;28;20534;-66
2024/04/08 03:09:57;;;;;;;4.33;2.90;;;17.70;99.90;;;;;;5116866;28;20536;-66
2024/04/08 03:12:24;;;;;;;5.50;3.37;;;17.70;99.90;;;;;;5116810;28;20532;-66
2024/04/08 03:14:49;;;;;;;3.50;2.90;;;17.70;99.90;;;;;;5117097;28;20188;-66
2024/04/08 03:17:16;;;;;;;7.23;3.40;;;17.60;99.90;;;;;;5117042;28;20449;-66
2024/04/08 03:19:41;;;;;;;3.90;2.97;;;17.50;99.90;;;;;;5116861;28;20283;-66
2024/04/08 03:22:08;;;;;;;5.33;3.30;;;17.40;99.90;;;;;;5116758;28;20910;-66
2024/04/08 03:24:35;;;;;;;8.17;3.67;;;17.30;99.90;;;;;;5116599;28;20216;-66
2024/04/08 03:27:01;;;;;;;5.40;3.30;;;17.30;99.90;;;;;;5116815;28;20540;-66
2024/04/08 03:29:27;;;;;;;8.07;3.03;;;17.40;99.90;;;;;;5116764;28;20452;-66
2024/04/08 03:31:53;;;;;;;4.27;2.90;;;17.40;99.90;;;;;;5116641;28;20506;-66
2024/04/08 03:34:19;;;;;;;5.73;3.43;;;17.30;99.90;;;;;;5116585;28;20282;-66
2024/04/08 03:36:45;;;;;;;11.80;3.60;;;17.20;99.90;;;;;;5116502;28;20484;-66
2024/04/08 03:39:12;;;;;;;6.13;2.40;;;17.10;99.90;;;;;;5116406;28;20218;-66
2024/04/08 03:41:40;;;;;;;5.00;3.60;;;17.10;99.90;;;;;;5116554;28;20451;-66
2024/04/08 03:44:07;;;;;;;7.07;3.33;;;17.00;99.90;;;;;;5116432;28;20913;-66
2024/04/08 03:46:34;;;;;;;3.50;2.83;;;17.00;99.90;;;;;;5116211;28;20476;-66
2024/04/08 03:49:00;;;;;;;4.37;3.43;;;16.90;99.90;;;;;;5116258;28;20944;-66
2024/04/08 03:51:26;;;;;;;6.03;3.50;;;16.80;99.90;;;;;;5116100;28;20498;-66
2024/04/08 03:53:52;;;;;;;4.37;3.30;;;16.80;99.90;;;;;;5115994;28;20951;-66
2024/04/08 03:56:18;;;;;;;6.53;3.43;;;16.90;99.90;;;;;;5116237;28;20188;-66
2024/04/08 03:58:46;;;;;;;6.87;4.53;;;16.80;99.90;;;;;;5116144;27;21036;-66
2024/04/08 04:01:11;;;;;;;5.60;3.67;;;16.90;99.90;;;;;;5116074;28;20184;-66
2024/04/08 04:03:38;;;;;;;4.10;3.40;;;16.80;99.90;;;;;;5115927;28;20540;-66
2024/04/08 04:06:05;;;;;;;3.50;3.00;;;16.80;99.90;;;;;;5115803;28;20219;-66
2024/04/08 04:08:31;;;;;;;7.27;3.40;;;16.80;99.90;;;;;;5115806;27;20482;-66
2024/04/08 04:10:57;;;;;;;9.40;3.53;;;16.70;99.90;;;;;;5116029;28;20444;-66
2024/04/08 04:13:23;;;;;;;3.57;3.30;;;16.80;99.90;;;;;;5115863;28;20459;-66
2024/04/08 04:15:51;;;;;;;5.20;3.60;;;16.80;99.90;;;;;;5115809;28;20215;-66
2024/04/08 04:18:17;;;;;;;3.80;3.50;;;16.80;99.90;;;;;;5115730;28;20450;-66
2024/04/08 04:20:45;;;;;;;6.03;3.63;;;16.90;99.90;;;;;;5115611;28;20804;-66
2024/04/08 04:23:14;;;;;;;11.90;3.53;;;16.90;99.90;;;;;;5115474;28;20460;-66
2024/04/08 04:25:39;;;;;;;7.17;3.70;;;16.90;99.90;;;;;;5115606;28;20491;-66
2024/04/08 04:28:06;;;;;;;6.87;5.23;;;16.80;99.90;;;;;;5115367;28;20454;-66
2024/04/08 04:30:32;;;;;;;9.43;4.17;;;16.70;99.90;;;;;;5115375;27;20609;-66
2024/04/08 04:33:01;;;;;;;4.13;3.63;;;16.70;99.90;;;;;;5115358;28;20464;-66
2024/04/08 04:35:27;;;;;;;4.00;3.40;;;16.50;99.90;;;;;;5115278;27;20235;-66
2024/04/08 04:37:53;;;;;;;5.47;4.10;;;16.50;99.90;;;;;;5115375;28;20453;-66
2024/04/08 04:40:19;;;;;;;4.17;3.43;;;16.50;99.90;;;;;;5115331;28;20276;-66
2024/04/08 04:42:46;;;;;;;6.70;3.90;;;16.60;99.90;;;;;;5114930;28;21046;-66
2024/04/08 04:45:11;;;;;;;4.80;3.17;;;16.70;99.90;;;;;;5115073;28;20306;-66
2024/04/08 04:47:38;;;;;;;3.90;3.47;;;16.70;99.90;;;;;;5114839;28;20561;-66
2024/04/08 04:50:06;;;;;;;5.80;3.90;;;16.80;99.90;;;;;;5114808;28;20290;-66
2024/04/08 04:52:34;;;;;;;6.20;3.83;;;16.90;99.90;;;;;;5115147;28;20464;-66
2024/04/08 04:55:00;;;;;;;7.73;3.93;;;16.90;99.90;;;;;;5115017;28;20873;-66
2024/04/08 04:57:27;;;;;;;4.43;3.70;;;16.90;99.90;;;;;;5114921;27;20686;-66
2024/04/08 04:59:52;;;;;;;9.00;3.53;;;16.90;99.90;;;;;;5114844;28;20190;-66
2024/04/08 05:02:19;;;;;;;5.90;3.70;;;17.00;99.90;;;;;;5114710;28;20473;-66
2024/04/08 05:04:44;;;;;;;4.10;3.30;;;17.00;99.90;;;;;;5114538;28;20218;-66
2024/04/08 05:07:12;;;;;;;5.43;3.63;;;17.00;99.90;;;;;;5114863;28;21019;-66
2024/04/08 05:09:38;;;;;;;8.23;4.10;;;17.00;99.90;;;;;;5114699;28;20286;-65
2024/04/08 05:12:05;;;;;;;11.10;6.57;;;17.10;99.90;;;;;;5114625;28;21011;-66
2024/04/08 05:14:30;;;;;;;5.30;4.27;;;17.10;99.90;;;;;;5114532;27;20557;-66
2024/04/08 05:16:57;;;;;;;6.63;3.90;;;17.10;99.90;;;;;;5113950;28;20450;-66
2024/04/08 05:19:24;;;;;;;5.13;3.60;;;17.20;99.90;;;;;;5114351;28;20195;-66
2024/04/08 05:21:50;;;;;;;5.70;4.00;;;17.20;99.90;;;;;;5114332;28;20455;-66
2024/04/08 05:24:17;;;;;;;5.70;3.80;;;17.20;99.90;;;;;;5114352;28;20448;-66
2024/04/08 05:26:43;;;;;;;7.67;3.40;;;17.20;99.90;;;;;;5114382;28;20460;-66
2024/04/08 05:29:09;;;;;;;3.63;3.30;;;17.30;99.90;;;;;;5114225;28;20448;-66
2024/04/08 05:31:35;;;;;;;6.27;3.90;;;17.30;99.90;;;;;;5114184;28;20596;-66
2024/04/08 05:34:01;;;;;;;7.77;4.00;;;17.30;99.90;;;;;;5114036;28;20192;-66
2024/04/08 05:36:27;;;;;;;7.70;4.37;;;17.40;99.90;;;;;;5114248;28;21051;-66
2024/04/08 05:38:53;;;;;;;5.50;4.77;;;17.40;99.90;;;;;;5113919;28;20201;-66
2024/04/08 05:41:21;;;;;;;8.90;4.40;;;17.50;99.90;;;;;;5114036;28;20536;-66
2024/04/08 05:43:46;;;;;;;5.50;4.27;;;17.50;99.90;;;;;;5113901;28;20191;-66
2024/04/08 05:46:13;;;;;;;6.97;3.80;;;17.50;99.90;;;;;;5113519;27;20523;-66
2024/04/08 05:48:38;;;;;;;8.90;4.20;;;17.50;99.90;;;;;;5113801;28;20194;-66
2024/04/08 05:51:06;;;;;;;11.03;4.63;;;17.50;99.90;;;;;;5113953;28;20537;-66
2024/04/08 05:53:32;;;;;;;4.40;3.93;;;17.50;99.90;;;;;;5113896;28;20197;-66
2024/04/08 05:55:58;;;;;;;8.03;4.23;;;17.60;99.90;;;;;;5113702;28;20458;-66
2024/04/08 05:58:25;;;;;;;6.27;4.00;;;17.70;99.90;;;;;;5114162;28;20274;-66
2024/04/08 06:00:51;;;;;;;9.87;4.93;;;17.80;99.90;;;;;;5113536;28;21010;-66
2024/04/08 06:03:17;;;;;;;5.57;4.77;;;17.80;99.90;;;;;;5113454;28;20441;-66
2024/04/08 06:05:44;;;;;;;8.40;3.60;;;17.70;99.90;;;;;;5113691;28;20886;-66
2024/04/08 06:08:09;;;;;;;15.07;5.30;;;17.70;99.90;;;;;;5113767;28;20188;-66
2024/04/08 06:10:41;;;;;;;9.00;4.37;;;17.70;99.90;;;;;;5113857;28;21014;-66
2024/04/08 06:13:07;;;;;;;4.30;3.73;;;17.80;99.90;;;;;;5113738;28;20196;-66
2024/04/08 06:15:36;;;;;;;6.10;4.30;;;17.90;99.90;;;;;;5113523;28;20539;-66
2024/04/08 06:18:01;;;;;;;8.20;4.57;;;17.90;99.90;;;;;;5113652;28;20595;-66
2024/04/08 06:20:28;;;;;;;7.23;3.93;;;18.00;99.90;;;;;;5113676;28;20536;-66
2024/04/08 06:22:54;;;;;;;7.40;3.77;;;18.00;99.90;;;;;;5113598;28;20218;-66
2024/04/08 06:25:21;;;;;;;4.90;4.17;;;18.10;99.90;;;;;;5113514;28;20474;-66
2024/04/08 06:27:46;;;;;;;4.77;3.87;;;18.10;99.90;;;;;;5113307;28;20441;-66
2024/04/08 06:30:14;;;;;;;5.83;4.50;;;18.10;99.90;;;;;;5112864;28;20863;-66
2024/04/08 06:32:41;;;;;;;8.10;3.67;;;18.00;99.90;;;;;;5113691;28;20260;-66
2024/04/08 06:35:07;;;;;;;3.80;3.50;;;18.00;99.90;;;;;;5113562;28;20910;-66
2024/04/08 06:37:33;;;;;;;4.40;4.00;;;18.10;99.90;;;;;;5113235;28;20532;-66
2024/04/08 06:39:59;;;;;;;4.00;3.37;;;18.20;99.90;;;;;;5113482;28;20537;-66
2024/04/08 06:42:25;;;;;;;5.73;3.70;;;18.30;99.90;;;;;;5113036;28;20192;-66
2024/04/08 06:44:52;;;;;;;10.80;4.80;;;18.40;99.90;;;;;;5112605;28;20514;-66
2024/04/08 06:47:19;;;;;;;7.40;4.13;;;18.50;99.90;;;;;;5119758;28;20211;-66
2024/04/08 06:49:47;;;;;;;12.20;5.70;;;18.40;99.90;;;;;;5132106;28;20455;-66
2024/04/08 06:52:13;;;;;;;9.27;5.10;;;18.40;99.90;;;;;;5126641;28;20437;-66
2024/04/08 06:54:40;;;;;;;11.23;5.00;;;18.50;99.90;;;;;;5122763;28;20457;-66
2024/04/08 06:57:07;;;;;;;6.40;4.47;;;18.60;99.90;;;;;;5125473;28;20176;-66
2024/04/08 06:59:34;;;;;;;10.40;6.13;;;18.70;99.90;;;;;;5131942;28;20460;-66
2024/04/08 07:02:00;;;;;;;8.77;4.47;;;18.70;99.90;;;;;;5132503;28;20472;-66
2024/04/08 07:04:26;;;;;;;8.50;5.20;;;18.70;99.90;;;;;;5132335;28;20453;-66
2024/04/08 07:06:53;;;;;;;9.10;4.30;;;18.80;99.90;;;;;;5132651;27;20479;-65
2024/04/08 07:09:21;;;;;;;7.77;4.87;;;18.90;99.90;;;;;;5132580;28;20501;-66
2024/04/08 07:11:46;;;;;;;5.47;3.87;;;19.10;99.90;;;;;;5119366;28;20933;-67
2024/04/08 07:14:14;;;;;;;6.20;4.30;;;19.20;99.90;;;;;;5112573;28;20610;-67
2024/04/08 07:16:39;;;;;;;12.00;4.27;;;19.20;99.90;;;;;;5120241;28;20191;-65
2024/04/08 07:19:06;;;;;;;15.47;4.27;;;19.20;99.90;;;;;;5117502;28;20935;-66
2024/04/08 07:21:31;;;;;;;4.90;3.87;;;19.30;99.90;;;;;;5117994;28;20627;-67
2024/04/08 07:23:59;;;;;;;7.03;4.07;;;19.40;99.90;;;;;;5117362;28;20476;-69
2024/04/08 07:26:26;;;;;;;3.70;3.40;;;19.40;99.90;;;;;;5117183;28;20690;-67
2024/04/08 07:28:52;;;;;;;4.23;3.90;;;19.50;99.90;;;;;;5111211;28;20460;-65
2024/04/08 07:31:18;;;;;;;4.83;4.40;;;19.50;99.90;;;;;;5112071;28;20532;-63
2024/04/08 07:33:44;;;;;;;4.17;3.73;;;19.30;99.90;;;;;;5112005;28;20541;-65
2024/04/08 07:36:10;;;;;;;7.70;3.83;;;19.40;99.90;;;;;;5112585;28;20546;-64
2024/04/08 07:38:36;;;;;;;8.00;3.83;;;19.30;99.90;;;;;;5112724;28;20532;-64
2024/04/08 07:41:03;;;;;;;6.23;3.60;;;19.40;99.90;;;;;;5115110;28;20192;-65
2024/04/08 07:43:31;;;;;;;5.97;3.63;;;19.40;99.90;;;;;;5116341;28;20944;-67
2024/04/08 07:45:56;;;;;;;5.30;3.73;;;19.60;99.90;;;;;;5116131;28;20481;-66
2024/04/08 07:48:23;;;;;;;3.77;3.47;;;19.80;99.90;;;;;;5116337;28;20456;-64
2024/04/08 07:50:50;;;;;;;12.80;5.30;;;20.00;99.90;;;;;;5116161;28;20184;-65
2024/04/08 07:53:17;;;;;;;8.33;4.23;;;20.10;99.90;;;;;;5115721;28;20453;-75
2024/04/08 07:55:43;;;;;;;6.40;3.80;;;20.30;99.90;;;;;;5116095;28;20844;-63
2024/04/08 07:58:12;;;;;;;4.87;3.27;;;20.40;99.90;;;;;;5116165;28;20458;-65
2024/04/08 08:00:38;;;;;;;4.50;3.17;;;20.40;99.90;;;;;;5116212;28;20808;-63
2024/04/08 08:03:05;;;;;;;7.00;3.40;;;20.40;99.90;;;;;;5115931;28;20449;-64
2024/04/08 08:05:31;;;;;;;7.60;3.50;;;20.50;99.90;;;;;;5114933;28;20208;-63
2024/04/08 08:07:59;;;;;;;7.23;3.90;;;20.60;99.90;;;;;;5115316;28;20454;-64
2024/04/08 08:10:26;;;;;;;4.93;3.43;;;20.80;99.90;;;;;;5115942;28;20441;-64
2024/04/08 08:12:52;;;;;;;4.60;4.20;;;20.80;99.90;;;;;;5115518;27;20879;-64
2024/04/08 08:15:21;;;;;;;3.47;2.90;;;21.00;99.90;;;;;;5115849;28;20541;-64
2024/04/08 08:17:49;;;;;;;6.23;3.37;;;20.90;99.90;;;;;;5115847;28;20448;-64
2024/04/08 08:20:16;;;;;;;4.90;3.77;;;20.80;99.90;;;;;;5115822;28;20471;-63
2024/04/08 08:22:43;;;;;;;4.10;3.63;;;20.80;99.90;;;;;;5115602;28;20512;-63
2024/04/08 08:25:09;;;;;;;3.30;3.00;;;20.80;99.90;;;;;;5115709;28;21155;-63
2024/04/08 08:27:36;;;;;;;4.73;3.50;;;20.80;99.90;;;;;;5115696;28;20937;-63
2024/04/08 08:30:03;;;;;;;3.67;3.10;;;20.90;99.90;;;;;;5115780;28;20507;-63
2024/04/08 08:32:30;;;;;;;3.40;3.10;;;20.90;99.90;;;;;;5115500;28;20498;-63
2024/04/08 08:34:57;;;;;;;4.10;3.20;;;21.10;99.90;;;;;;5115371;28;20449;-63
2024/04/08 08:37:22;;;;;;;4.37;3.23;;;21.40;99.90;;;;;;5115300;28;20477;-63
2024/04/08 08:39:50;;;;;;;5.20;3.30;;;21.40;99.90;;;;;;5115497;28;20516;-63
2024/04/08 08:42:21;;;;;;;5.67;2.83;;;21.30;99.90;;;;;;5115266;28;20184;-63
2024/04/08 08:44:52;;;;;;;4.20;3.80;;;21.20;99.90;;;;;;5115055;28;20498;-64
2024/04/08 08:47:19;;;;;;;4.27;3.70;;;21.20;99.90;;;;;;5115023;28;20474;-64
2024/04/08 08:49:50;;;;;;;6.40;4.00;;;21.20;99.90;;;;;;5114933;28;20933;-64
2024/04/08 08:52:16;;;;;;;4.33;3.33;;;21.30;99.90;;;;;;5114318;28;20524;-63
2024/04/08 08:54:42;;;;;;;4.93;3.40;;;21.50;99.90;;;;;;5114972;28;20457;-63
2024/04/08 08:57:09;;;;;;;3.30;2.80;;;21.60;99.90;;;;;;5114797;28;20445;-63
2024/04/08 08:59:36;;;;;;;8.53;3.23;;;21.70;99.90;;;;;;5114861;28;20457;-63
2024/04/08 09:02:04;;;;;;;5.03;3.63;;;21.40;99.90;;;;;;5114871;28;20528;-63
2024/04/08 09:04:31;;;;;;;4.57;3.40;;;21.10;99.90;;;;;;5114678;28;20461;-63
2024/04/08 09:06:58;;;;;;;5.93;3.20;;;21.00;99.90;;;;;;5115072;28;20563;-63
2024/04/08 09:09:25;;;;;;;3.57;2.80;;;20.90;99.90;;;;;;5114963;28;20453;-63
2024/04/08 09:11:50;;;;;;;3.43;3.10;;;21.00;99.90;;;;;;5114994;28;20877;-63
2024/04/08 09:14:17;;;;;;;3.73;3.10;;;21.10;99.90;;;;;;5114562;28;20545;-63
2024/04/08 09:16:43;;;;;;;7.93;3.50;;;21.30;99.90;;;;;;5114608;28;20242;-63
2024/04/08 09:19:10;;;;;;;3.33;3.10;;;21.40;99.90;;;;;;5114799;28;20445;-63
2024/04/08 09:21:36;;;;;;;3.10;2.90;;;21.50;99.90;;;;;;5114603;28;20227;-63
2024/04/08 09:24:06;;;;;;;6.00;3.47;;;21.60;99.90;;;;;;5114330;28;20489;-63
2024/04/08 09:26:32;;;;;;;4.83;3.03;;;21.90;99.90;;;;;;5114282;28;20215;-64
2024/04/08 09:28:59;;;;;;;13.97;3.73;;;22.20;99.90;;;;;;5114283;28;20464;-64
2024/04/08 09:31:25;;;;;;;4.73;3.30;;;22.30;99.90;;;;;;5114936;28;20474;-64
2024/04/08 09:33:52;;;;;;;4.90;2.90;;;22.40;99.90;;;;;;5114420;28;20506;-63
2024/04/08 09:36:18;;;;;;;6.33;3.20;;;22.50;99.90;;;;;;5114308;28;20496;-63
2024/04/08 09:38:47;;;;;;;3.83;3.53;;;22.80;99.90;;;;;;5114127;28;20556;-63
2024/04/08 09:41:17;;;;;;;4.30;3.57;;;23.00;99.90;;;;;;5114079;28;20940;-63
2024/04/08 09:43:45;;;;;;;5.10;4.10;;;22.90;99.90;;;;;;5113945;28;20791;-63
2024/04/08 09:46:13;;;;;;;5.50;3.40;;;22.80;99.90;;;;;;5113692;28;20481;-63
2024/04/08 09:48:41;;;;;;;3.97;2.70;;;23.00;99.90;;;;;;5114092;28;20457;-63
2024/04/08 09:51:08;;;;;;;3.60;2.70;;;23.20;99.90;;;;;;5113909;28;20499;-63
2024/04/08 09:54:54;;;;;;;6.27;3.13;;;23.50;99.90;;;;;;5545279;25;20540;-64
2024/04/08 09:57:25;;;;;;;4.70;2.93;;;23.80;99.90;;;;;;5545623;25;20437;-64
2024/04/08 09:59:57;;;;;;;4.93;2.93;;;23.70;99.90;;;;;;5545476;25;20448;-64
2024/04/08 10:02:29;;;;;;;3.80;2.90;;;23.90;99.90;;;;;;5545137;25;20497;-64
2024/04/08 10:04:59;;;;;;;5.87;3.40;;;24.20;99.90;;;;;;5545279;25;20449;-64
2024/04/08 10:07:25;;;;;;;4.67;3.00;;;24.50;99.90;;;;;;5545063;25;20928;-64
2024/04/08 10:09:56;;;;;;;4.23;2.60;;;24.60;99.90;;;;;;5545138;25;20485;-64
2024/04/08 10:12:30;;;;;;;7.90;3.10;;;24.60;99.90;;;;;;5545454;25;20204;-64
2024/04/08 10:14:58;;;;;;;5.90;2.47;;;24.60;99.90;;;;;;5544937;25;20976;-64
2024/04/08 10:17:29;;;;;;;4.47;2.70;;;24.70;99.90;;;;;;5545481;25;20944;-64
2024/04/08 10:19:54;;;;;;;4.13;2.70;;;24.80;99.90;;;;;;5544969;25;20488;-64
2024/04/08 10:22:23;;;;;;;4.40;2.70;;;25.00;99.90;;;;;;5545021;25;20460;-65
2024/04/08 10:24:48;;;;;;;8.90;2.97;;;25.20;99.90;;;;;;5544965;25;20208;-64
2024/04/08 10:27:20;;;;;;;4.13;3.30;;;25.30;99.90;;;;;;5544306;25;20452;-69
2024/04/08 10:29:55;;;;;;;3.07;2.57;;;25.20;99.90;;;;;;5544773;25;20563;-68
2024/04/08 10:32:24;;;;;;;4.10;2.77;;;25.20;99.90;;;;;;5544946;25;20866;-69
2024/04/08 10:34:49;;;;;;;5.40;3.10;;;25.30;99.90;;;;;;5544648;25;20433;-67
2024/04/08 10:37:17;;;;;;;3.73;2.80;;;25.30;99.90;;;;;;5544693;25;20838;-71
2024/04/08 10:39:43;;;;;;;4.40;2.80;;;25.30;99.90;;;;;;5544640;25;20235;-70
2024/04/08 10:42:17;;;;;;;9.27;3.07;;;25.40;99.90;;;;;;5544576;25;20967;-66
2024/04/08 10:44:45;;;;;;;3.40;3.10;;;25.40;99.90;;;;;;5544498;25;20467;-68
2024/04/08 10:47:13;;;;;;;4.10;2.90;;;25.40;99.90;;;;;;5544725;25;20449;-68
2024/04/08 10:49:40;;;;;;;6.13;2.80;;;25.50;99.90;;;;;;5544795;25;20456;-67
2024/04/08 10:52:08;;;;;;;4.97;2.97;;;25.50;99.90;;;;;;5544218;25;20445;-66
2024/04/08 10:54:35;;;;;;;3.07;2.87;;;25.30;99.90;;;;;;5544094;25;20987;-67
2024/04/08 10:57:03;;;;;;;5.40;2.97;;;25.10;99.90;;;;;;5544480;25;20784;-66
2024/04/08 10:59:29;;;;;;;3.70;2.90;;;24.90;99.90;;;;;;5544315;25;20456;-66
2024/04/08 11:02:00;;;;;;;9.17;2.57;;;25.00;99.90;;;;;;5543984;25;20975;-68
2024/04/08 11:04:27;;;;;;;5.37;2.57;;;25.20;99.90;;;;;;5538564;25;20220;-68
2024/04/08 11:06:55;;;;;;;4.20;2.70;;;25.40;99.90;;;;;;5528098;25;20531;-68
2024/04/08 11:09:21;;;;;;;4.97;3.00;;;25.50;99.90;;;;;;5527605;25;20442;-63
2024/04/08 11:11:49;;;;;;;3.10;2.80;;;25.70;99.90;;;;;;5528190;26;20501;-65
2024/04/08 11:14:15;;;;;;;10.40;2.80;;;25.90;99.90;;;;;;5527896;26;20221;-65
2024/04/08 11:16:43;;;;;;;7.77;3.37;;;26.00;99.90;;;;;;5527999;26;20516;-76
2024/04/08 11:19:12;;;;;;;5.37;2.67;;;26.20;99.90;;;;;;5527997;26;20232;-64
2024/04/08 11:21:40;;;;;;;5.17;2.70;;;26.50;99.90;;;;;;5527927;26;20502;-66
2024/04/08 11:24:10;;;;;;;4.23;2.40;;;26.70;99.90;;;;;;5527904;26;20486;-72
2024/04/08 11:26:38;;;;;;;4.63;2.40;;;26.60;99.90;;;;;;5527801;26;20442;-70
2024/04/08 11:29:04;;;;;;;6.50;2.33;;;26.60;99.90;;;;;;5527601;26;20449;-70
2024/04/08 11:31:32;;;;;;;3.27;2.50;;;26.80;99.90;;;;;;5527954;26;20509;-76
2024/04/08 11:33:58;;;;;;;7.80;2.33;;;26.90;99.90;;;;;;5527641;26;20450;-70
2024/04/08 11:36:28;;;;;;;9.33;2.97;;;26.90;99.90;;;;;;5527976;26;20533;-72
2024/04/08 11:38:54;;;;;;;8.43;3.97;;;27.00;99.90;;;;;;5527971;26;20221;-64
2024/04/08 11:41:22;;;;;;;5.87;3.07;;;27.10;99.90;;;;;;5527740;26;20446;-64
2024/04/08 11:43:48;;;;;;;11.97;2.53;;;27.10;99.90;;;;;;5527668;26;20645;-68
2024/04/08 11:46:16;;;;;;;3.17;2.47;;;27.20;99.90;;;;;;5527669;26;20442;-71
2024/04/08 11:48:45;;;;;;;3.80;2.60;;;27.20;99.90;;;;;;5527472;26;20256;-67
2024/04/08 11:51:13;;;;;;;5.50;2.53;;;27.40;99.90;;;;;;5527310;26;20450;-67
2024/04/08 11:53:41;;;;;;;4.53;2.37;;;27.40;99.10;;;;;;5527122;26;20980;-68
2024/04/08 11:56:12;;;;;;;5.30;2.70;;;27.50;99.10;;;;;;5527478;26;20449;-73
2024/04/08 11:58:38;;;;;;;6.23;2.67;;;27.60;99.20;;;;;;5527398;26;20449;-66
2024/04/08 12:01:06;;;;;;;5.70;2.87;;;27.70;98.40;;;;;;5527388;26;20559;-73
2024/04/08 12:03:32;;;;;;;4.70;3.10;;;27.80;98.80;;;;;;5527275;26;20208;-72
2024/04/08 12:06:00;;;;;;;13.87;5.27;;;27.80;97.80;;;;;;5527081;26;20449;-72
2024/04/08 12:08:26;;;;;;;6.13;2.30;;;28.00;97.40;;;;;;5526949;26;20209;-73
2024/04/08 12:10:57;;;;;;;7.33;2.60;;;28.00;97.10;;;;;;5526742;26;20454;-73
2024/04/08 12:13:24;;;;;;;6.87;2.83;;;28.00;96.40;;;;;;5527128;26;20236;-73
2024/04/08 12:15:52;;;;;;;10.67;2.93;;;28.00;94.70;;;;;;5526674;26;20996;-72
2024/04/08 12:18:18;;;;;;;4.87;2.60;;;28.00;93.70;;;;;;5526764;26;20498;-72
2024/04/08 12:20:47;;;;;;;3.87;2.43;;;28.00;93.80;;;;;;5527268;26;20562;-72
2024/04/08 12:23:13;;;;;;;7.40;3.37;;;28.00;93.20;;;;;;5527288;26;20493;-73
2024/04/08 12:25:41;;;;;;;4.33;2.47;;;28.10;93.20;;;;;;5527176;26;20457;-71
2024/04/08 12:28:10;;;;;;;4.47;2.47;;;28.10;92.70;;;;;;5527089;26;20537;-71
2024/04/08 12:30:41;;;;;;;5.43;2.60;;;28.30;91.80;;;;;;5526978;26;20449;-72
2024/04/08 12:33:07;;;;;;;9.23;2.43;;;28.30;92.40;;;;;;5526953;26;20445;-73
2024/04/08 12:35:35;;;;;;;8.67;2.93;;;28.50;91.10;;;;;;5527075;26;20457;-72
2024/04/08 12:38:01;;;;;;;9.00;2.67;;;28.50;90.70;;;;;;5526892;26;20213;-73
2024/04/08 12:40:29;;;;;;;6.50;2.80;;;28.60;90.70;;;;;;5526970;26;20488;-73
2024/04/08 12:42:55;;;;;;;6.17;2.60;;;28.60;90.20;;;;;;5526856;26;20232;-73
2024/04/08 12:45:25;;;;;;;5.90;3.13;;;28.70;90.30;;;;;;5526813;26;20453;-72